Time;durP1;ratioP1;P1;durP2;ratioP2;P2;SDS_P1;SDS_P2;PMS_P1;PMS_P2;Temp;Humidity;BMP_temperature;BMP_pressure;BME280_temperature;BME280_humidity;BME280_pressure;Samples;Min_cycle;Max_cycle;Signal;HPM_P1;HPM_P2
2022/08/07 00:04:28;;;;;;;25.02;16.27;;;14.70;99.90;;;;;;10365215;28;20140;-79
2022/08/07 00:09:28;;;;;;;17.38;13.18;;;14.80;99.90;;;;;;10360419;28;20057;-78
2022/08/07 00:14:29;;;;;;;15.80;12.80;;;14.70;99.90;;;;;;10362162;28;20030;-79
2022/08/07 00:19:31;;;;;;;15.75;11.95;;;14.60;99.90;;;;;;10364873;28;20129;-79
2022/08/07 00:24:31;;;;;;;18.05;13.50;;;14.50;99.90;;;;;;10365159;28;20038;-79
2022/08/07 00:29:32;;;;;;;15.15;12.02;;;14.30;99.90;;;;;;10356968;28;20585;-78
2022/08/07 00:34:33;;;;;;;18.75;11.57;;;14.20;99.90;;;;;;10361873;28;20033;-79
2022/08/07 00:39:34;;;;;;;15.10;11.45;;;14.20;99.90;;;;;;10363036;28;20450;-78
2022/08/07 00:44:35;;;;;;;18.25;11.90;;;14.10;99.90;;;;;;10360968;28;20077;-78
2022/08/07 00:49:36;;;;;;;16.58;9.93;;;14.00;99.90;;;;;;10359032;28;20734;-78
2022/08/07 00:54:36;;;;;;;15.15;10.73;;;13.90;99.90;;;;;;10361652;28;20624;-78
2022/08/07 00:59:37;;;;;;;16.52;10.82;;;13.80;99.90;;;;;;10358200;28;20030;-78
2022/08/07 01:04:38;;;;;;;13.88;10.10;;;13.80;99.90;;;;;;10343988;28;20073;-78
2022/08/07 01:09:39;;;;;;;19.00;13.40;;;13.70;99.90;;;;;;10360911;28;20065;-79
2022/08/07 01:14:39;;;;;;;19.60;13.90;;;13.70;99.90;;;;;;10358825;28;20029;-78
2022/08/07 01:19:41;;;;;;;22.15;16.98;;;13.70;99.90;;;;;;10359660;28;20040;-78
2022/08/07 01:24:43;;;;;;;24.33;16.05;;;13.60;99.90;;;;;;10362107;28;20033;-79
2022/08/07 01:29:44;;;;;;;67.68;47.25;;;13.60;99.90;;;;;;10362537;28;20037;-78
2022/08/07 01:34:44;;;;;;;418.73;71.63;;;13.50;99.90;;;;;;10339362;28;20194;-79
2022/08/07 01:39:46;;;;;;;1999.90;999.90;;;13.30;99.90;;;;;;10362277;28;20041;-78
2022/08/07 01:44:47;;;;;;;30.23;20.10;;;13.20;99.90;;;;;;10348937;28;20061;-78
2022/08/07 01:49:47;;;;;;;28.52;19.98;;;13.20;99.90;;;;;;10359360;28;20060;-79
2022/08/07 01:54:51;;;;;;;50.30;30.00;;;13.20;99.90;;;;;;10358733;28;20088;-79
2022/08/07 02:00:21;;;;;;;44.60;28.48;;;13.20;99.90;;;;;;10356587;28;20029;-81
2022/08/07 02:05:45;;;;;;;40.17;28.17;;;13.50;99.90;;;;;;10337005;28;20057;-80
2022/08/07 02:10:48;;;;;;;41.47;26.70;;;13.60;99.90;;;;;;10356880;28;20081;-80
2022/08/07 02:15:51;;;;;;;46.75;27.15;;;13.70;99.90;;;;;;10344070;28;20036;-78
2022/08/07 02:20:53;;;;;;;37.22;23.90;;;13.70;99.90;;;;;;10361120;28;20099;-78
2022/08/07 02:25:55;;;;;;;37.67;23.92;;;13.70;99.90;;;;;;10359824;28;20402;-80
2022/08/07 02:30:58;;;;;;;29.98;21.30;;;13.50;99.90;;;;;;10358519;28;20148;-79
2022/08/07 02:36:00;;;;;;;38.35;25.20;;;13.40;99.90;;;;;;10362849;28;20071;-79
2022/08/07 02:41:02;;;;;;;43.22;28.92;;;13.30;99.90;;;;;;10360150;28;20093;-78
2022/08/07 02:46:04;;;;;;;31.30;22.25;;;13.30;99.90;;;;;;10354932;28;20752;-79
2022/08/07 02:51:13;;;;;;;33.85;23.17;;;13.40;99.90;;;;;;10353596;28;20045;-79
2022/08/07 02:56:18;;;;;;;36.28;24.42;;;13.20;99.90;;;;;;10358737;28;20033;-79
2022/08/07 03:01:21;;;;;;;30.60;19.20;;;13.10;99.90;;;;;;10368588;28;20092;-79
2022/08/07 03:06:22;;;;;;;31.42;22.75;;;12.90;99.90;;;;;;10366941;28;20124;-78
2022/08/07 03:11:23;;;;;;;44.78;29.55;;;12.80;99.90;;;;;;10365923;28;20867;-79
2022/08/07 03:16:24;;;;;;;43.15;25.85;;;12.80;99.90;;;;;;10368238;28;20109;-78
2022/08/07 03:21:26;;;;;;;38.63;25.13;;;12.80;99.90;;;;;;10367577;28;20511;-79
2022/08/07 03:26:32;;;;;;;29.48;20.77;;;12.80;99.90;;;;;;10363667;28;20030;-78
2022/08/07 03:31:33;;;;;;;;;;;12.80;99.90;;;;;;10362890;28;20040;-79
2022/08/07 03:36:34;;;;;;;33.53;23.60;;;12.70;99.90;;;;;;10360617;28;20381;-78
2022/08/07 03:41:37;;;;;;;34.50;24.58;;;12.70;99.90;;;;;;10366140;28;20041;-80
2022/08/07 03:46:40;;;;;;;33.55;24.52;;;12.70;99.90;;;;;;10365266;28;20038;-80
2022/08/07 03:51:42;;;;;;;36.42;23.55;;;12.80;99.90;;;;;;10367977;28;20022;-79
2022/08/07 03:56:44;;;;;;;31.67;22.23;;;12.60;99.90;;;;;;10363217;28;20466;-79
2022/08/07 04:01:45;;;;;;;30.95;21.17;;;12.60;99.90;;;;;;10362672;28;20060;-79
2022/08/07 04:06:46;;;;;;;31.55;20.85;;;12.50;99.90;;;;;;10359030;28;20359;-78
2022/08/07 04:11:49;;;;;;;26.35;19.45;;;12.60;99.90;;;;;;10362084;28;20038;-78
2022/08/07 04:16:51;;;;;;;27.85;19.88;;;12.50;99.90;;;;;;10361792;28;20052;-79
2022/08/07 04:21:52;;;;;;;30.25;20.42;;;12.50;99.90;;;;;;10362158;28;20034;-78
2022/08/07 04:26:53;;;;;;;27.63;19.98;;;12.40;99.90;;;;;;10363065;28;20797;-78
2022/08/07 04:31:55;;;;;;;28.73;21.48;;;12.40;99.90;;;;;;10357009;28;20068;-78
2022/08/07 04:36:56;;;;;;;30.02;22.13;;;12.40;99.90;;;;;;10357684;28;20025;-78
2022/08/07 04:41:56;;;;;;;27.52;21.27;;;12.40;99.90;;;;;;10357524;28;20048;-77
2022/08/07 04:47:20;;;;;;;29.75;19.30;;;12.50;99.90;;;;;;10359313;28;20034;-78
2022/08/07 04:52:30;;;;;;;29.33;19.45;;;12.50;99.90;;;;;;10362159;28;20050;-77
2022/08/07 04:57:50;;;;;;;28.42;18.48;;;12.60;99.90;;;;;;10361963;28;20402;-78
2022/08/07 05:02:55;;;;;;;27.67;19.05;;;12.70;99.90;;;;;;10354172;28;20401;-77
2022/08/07 05:08:06;;;;;;;;;;;12.90;99.90;;;;;;10360865;28;20077;-77
2022/08/07 05:13:13;;;;;;;21.90;14.38;;;12.90;99.90;;;;;;10357012;28;19921;-78
2022/08/07 05:18:19;;;;;;;17.77;13.05;;;13.00;99.90;;;;;;10356399;28;20030;-78
2022/08/07 05:23:21;;;;;;;;;;;13.20;99.90;;;;;;10361288;28;20037;-78
2022/08/07 05:28:23;;;;;;;19.10;13.35;;;13.30;99.90;;;;;;10358188;28;19956;-78
2022/08/07 05:33:27;;;;;;;16.95;12.40;;;13.50;99.90;;;;;;10360538;28;20041;-78
2022/08/07 05:38:28;;;;;;;14.18;11.55;;;13.70;99.90;;;;;;10358843;28;20065;-78
2022/08/07 05:43:29;;;;;;;15.85;10.95;;;14.00;99.90;;;;;;10362264;28;20033;-79
2022/08/07 05:48:30;;;;;;;14.95;10.45;;;14.10;99.90;;;;;;10359475;28;20053;-79
2022/08/07 05:53:30;;;;;;;14.38;11.15;;;14.30;99.90;;;;;;10359744;28;20500;-78
2022/08/07 05:58:34;;;;;;;13.27;10.38;;;14.50;99.90;;;;;;10359412;28;20362;-79
2022/08/07 06:03:37;;;;;;;11.55;9.13;;;14.70;99.90;;;;;;10356890;28;20591;-79
2022/08/07 06:08:40;;;;;;;14.88;9.15;;;15.00;99.90;;;;;;10361029;28;20082;-79
2022/08/07 06:13:41;;;;;;;11.45;8.85;;;15.30;99.90;;;;;;10355762;28;20125;-80
2022/08/07 06:18:42;;;;;;;10.57;8.70;;;15.50;99.90;;;;;;10358587;28;20021;-80
2022/08/07 06:23:42;;;;;;;11.20;8.50;;;15.70;99.90;;;;;;10358348;28;20045;-80
2022/08/07 06:28:50;;;;;;;10.32;8.35;;;15.70;99.90;;;;;;10350056;28;20029;-83
2022/08/07 06:33:51;;;;;;;12.52;8.98;;;15.70;99.90;;;;;;10361286;28;20041;-84
2022/08/07 06:38:53;;;;;;;11.00;8.05;;;15.90;99.90;;;;;;10362841;28;20531;-84
2022/08/07 06:43:56;;;;;;;11.50;8.93;;;16.00;99.90;;;;;;10363963;28;20121;-83
2022/08/07 06:48:57;;;;;;;11.80;8.30;;;16.00;99.90;;;;;;10353538;28;20476;-82
2022/08/07 06:54:02;;;;;;;10.65;7.90;;;16.20;99.90;;;;;;10344723;28;20033;-81
2022/08/07 06:59:03;;;;;;;10.13;8.13;;;16.50;99.90;;;;;;10362670;28;20030;-83
2022/08/07 07:04:05;;;;;;;8.98;7.00;;;16.80;99.90;;;;;;10360915;28;20465;-83
2022/08/07 07:09:35;;;;;;;9.88;7.30;;;16.90;99.90;;;;;;10342342;28;20137;-82
2022/08/07 07:14:56;;;;;;;11.00;7.57;;;17.40;99.90;;;;;;10339638;28;20068;-82
2022/08/07 07:19:59;;;;;;;10.88;8.32;;;17.70;99.90;;;;;;10345041;28;20053;-81
2022/08/07 07:25:02;;;;;;;10.32;7.03;;;18.30;99.90;;;;;;10353345;28;20106;-82
2022/08/07 07:30:05;;;;;;;7.80;6.45;;;18.20;99.90;;;;;;10364346;28;20057;-81
2022/08/07 07:35:09;;;;;;;9.45;6.45;;;18.30;99.90;;;;;;10364164;28;20165;-81
2022/08/07 07:40:15;;;;;;;7.88;5.97;;;18.50;99.90;;;;;;10359063;28;20040;-81
2022/08/07 07:45:18;;;;;;;7.45;5.68;;;18.80;99.90;;;;;;10362390;28;20077;-81
2022/08/07 07:50:21;;;;;;;8.25;5.63;;;19.10;99.90;;;;;;10354622;28;20029;-81
2022/08/07 07:55:25;;;;;;;7.13;4.95;;;19.10;99.90;;;;;;10364953;28;20037;-81
2022/08/07 08:00:27;;;;;;;5.65;4.45;;;19.40;99.90;;;;;;10360527;28;20042;-82
2022/08/07 08:05:28;;;;;;;7.70;4.65;;;19.80;99.90;;;;;;10352442;28;20069;-82
2022/08/07 08:10:30;;;;;;;6.65;4.65;;;20.20;99.90;;;;;;10348688;28;20042;-83
2022/08/07 08:15:35;;;;;;;7.97;5.63;;;20.20;99.90;;;;;;10361199;28;20077;-82
2022/08/07 08:20:38;;;;;;;5.82;4.57;;;20.40;99.90;;;;;;10361850;28;20034;-82
2022/08/07 08:31:00;;;;;;;5.18;4.50;;;20.50;99.90;;;;;;10360757;28;20046;-82
2022/08/07 08:36:02;;;;;;;5.90;3.63;;;20.40;99.90;;;;;;10362502;28;20030;-81
2022/08/07 08:41:28;;;;;;;4.07;3.67;;;20.10;99.90;;;;;;10336469;28;20113;-81
2022/08/07 08:46:53;;;;;;;4.70;3.97;;;20.00;99.90;;;;;;10358294;28;20565;-81
2022/08/07 08:52:00;;;;;;;4.82;3.65;;;20.10;99.90;;;;;;10315142;28;20041;-81
2022/08/07 08:57:07;;;;;;;11.30;3.92;;;20.30;99.90;;;;;;10341228;28;20037;-81
2022/08/07 09:02:24;;;;;;;4.50;2.63;;;20.10;99.90;;;;;;10360546;28;20052;-81
2022/08/07 09:07:37;;;;;;;3.25;2.45;;;20.20;99.90;;;;;;10361265;28;20652;-81
2022/08/07 09:13:28;;;;;;;3.30;2.80;;;19.90;99.90;;;;;;10362514;28;20164;-82
2022/08/07 09:18:54;;;;;;;4.60;3.60;;;19.80;99.90;;;;;;10352631;28;20126;-80
2022/08/07 09:24:05;;;;;;;4.03;3.15;;;21.00;99.90;;;;;;10354104;28;20148;-81
2022/08/07 09:29:31;;;;;;;5.53;3.15;;;22.00;99.90;;;;;;10334085;28;20026;-81
2022/08/07 09:34:59;;;;;;;5.47;2.88;;;23.20;99.90;;;;;;10357435;28;20041;-81
2022/08/07 09:40:27;;;;;;;3.08;2.65;;;23.90;91.00;;;;;;10343240;28;20025;-80
2022/08/07 09:45:42;;;;;;;2.47;2.25;;;22.80;85.90;;;;;;10344149;28;20779;-80
2022/08/07 09:50:49;;;;;;;3.38;2.13;;;21.70;89.80;;;;;;10363837;28;20021;-81
2022/08/07 10:12:46;;;;;;;2.30;1.73;;;20.60;93.30;;;;;;12351648;23;20042;-82
2022/08/07 10:28:50;;;;;;;3.90;1.77;;;21.40;94.80;;;;;;11847073;23;20063;-81
2022/08/07 10:34:42;;;;;;;;;;;;;;;;;;;;;
2022/08/07 10:52:20;;;;;;;2.00;1.40;;;23.70;73.20;;;;;;10466361;28;20032;-81
2022/08/07 10:57:42;;;;;;;2.75;1.63;;;23.30;77.20;;;;;;10451050;28;20036;-81
2022/08/07 11:15:26;;;;;;;1.90;1.70;;;24.00;74.10;;;;;;10444965;28;20397;-81
2022/08/07 11:20:54;;;;;;;11.40;2.60;;;23.30;83.10;;;;;;10407176;28;20033;-83
2022/08/07 11:26:53;;;;;;;;;;;;;;;;;;;;;
2022/08/07 11:32:09;;;;;;;5.00;2.28;;;21.60;81.10;;;;;;10441703;28;20029;-81
2022/08/07 11:43:25;;;;;;;4.35;2.03;;;22.60;75.90;;;;;;10445081;28;20025;-81
2022/08/07 11:48:55;;;;;;;2.40;1.80;;;22.20;75.70;;;;;;10433395;28;20064;-80
2022/08/07 11:54:20;;;;;;;3.85;2.20;;;22.00;72.80;;;;;;10437035;28;20059;-80
2022/08/07 11:59:40;;;;;;;;;;;21.80;76.30;;;;;;10436168;28;20035;-82
2022/08/07 12:05:00;;;;;;;1.90;1.80;;;21.90;79.20;;;;;;10440540;28;20373;-82
2022/08/07 12:10:16;;;;;;;1.73;1.63;;;22.70;75.60;;;;;;10412406;28;20053;-83
2022/08/07 12:15:23;;;;;;;2.42;1.83;;;23.20;79.10;;;;;;10401268;28;20477;-82
2022/08/07 12:20:45;;;;;;;3.50;1.70;;;22.80;76.80;;;;;;10386195;28;20045;-82
2022/08/07 12:25:59;;;;;;;4.10;2.03;;;22.40;73.80;;;;;;10392653;28;20028;-83
2022/08/07 12:31:10;;;;;;;3.53;1.55;;;22.10;74.10;;;;;;10396209;28;20057;-82
2022/08/07 12:36:13;;;;;;;3.75;2.10;;;22.20;77.10;;;;;;10392650;28;20049;-83
2022/08/07 12:41:15;;;;;;;2.65;1.88;;;22.90;80.20;;;;;;10439445;23;20065;-82
2022/08/07 12:46:50;;;;;;;1.92;1.70;;;23.30;75.90;;;;;;10457471;28;20025;-82
2022/08/07 12:52:12;;;;;;;3.50;1.57;;;24.20;79.00;;;;;;10478296;28;20035;-81
2022/08/07 12:57:16;;;;;;;1.73;1.30;;;24.90;70.70;;;;;;10468070;28;20608;-82
2022/08/07 13:02:38;;;;;;;2.07;1.67;;;25.20;72.20;;;;;;10470037;28;20127;-81
2022/08/07 13:08:11;;;;;;;4.13;1.70;;;25.50;73.00;;;;;;10457917;28;20048;-82
2022/08/07 13:13:39;;;;;;;1.40;1.30;;;26.10;73.10;;;;;;10446509;28;20075;-82
2022/08/07 13:18:55;;;;;;;2.45;1.67;;;25.80;72.90;;;;;;10434999;28;20389;-85
2022/08/07 13:29:57;;;;;;;1.40;1.20;;;25.10;63.60;;;;;;10429435;28;20030;-80
2022/08/07 13:35:08;;;;;;;1.58;1.42;;;24.00;66.70;;;;;;10431529;28;20044;-84
2022/08/07 13:53:10;;;;;;;2.53;1.17;;;24.30;70.50;;;;;;10433662;28;20111;-83
2022/08/07 13:58:59;;;;;;;5.50;1.75;;;24.20;68.30;;;;;;10427728;28;20132;-83
2022/08/07 14:04:11;;;;;;;3.05;1.38;;;24.50;71.90;;;;;;10436108;28;20051;-84
2022/08/07 14:21:25;;;;;;;2.75;1.40;;;25.20;63.60;;;;;;10432534;28;20637;-82
2022/08/07 14:26:33;;;;;;;1.13;0.82;;;24.80;65.20;;;;;;10431665;28;20431;-83
2022/08/07 14:31:35;;;;;;;3.55;1.85;;;24.40;66.30;;;;;;10433159;28;20392;-83
2022/08/07 14:36:36;;;;;;;2.35;0.93;;;24.20;64.90;;;;;;10436514;28;20091;-84
2022/08/07 14:41:38;;;;;;;24.17;14.95;;;23.40;66.00;;;;;;10426769;28;20512;-83
2022/08/07 14:46:41;;;;;;;4.00;2.47;;;22.70;68.00;;;;;;10438328;28;20078;-82
2022/08/07 14:57:40;;;;;;;1.52;1.00;;;22.10;71.10;;;;;;10356148;28;20062;-82
2022/08/07 15:02:45;;;;;;;3.75;1.30;;;22.50;71.10;;;;;;10353929;28;20088;-83
2022/08/07 15:07:46;;;;;;;;;;;22.70;71.60;;;;;;10365032;28;20025;-83
2022/08/07 15:12:51;;;;;;;3.25;0.90;;;22.70;66.00;;;;;;10363145;28;19917;-82
2022/08/07 15:17:58;;;;;;;1.15;0.80;;;22.50;67.40;;;;;;10364791;28;20034;-83
2022/08/07 15:23:00;;;;;;;1.08;0.60;;;22.50;69.60;;;;;;10348078;28;20061;-83
2022/08/07 15:28:04;;;;;;;2.10;0.77;;;22.70;67.90;;;;;;10359293;28;20031;-83
2022/08/07 15:33:05;;;;;;;1.20;1.00;;;23.00;67.20;;;;;;10365756;28;20042;-83
2022/08/07 15:38:06;;;;;;;2.35;1.98;;;23.20;68.60;;;;;;10366519;28;20036;-83
2022/08/07 15:43:10;;;;;;;1.75;1.50;;;23.20;67.60;;;;;;10362972;28;20029;-83
2022/08/07 15:48:20;;;;;;;1.67;1.25;;;23.10;67.80;;;;;;10365644;28;20034;-83
2022/08/07 15:53:29;;;;;;;1.65;1.10;;;22.80;69.10;;;;;;10365053;28;20489;-82
2022/08/07 15:59:19;;;;;;;2.15;1.10;;;22.40;67.60;;;;;;10362695;28;20022;-83
2022/08/07 16:04:26;;;;;;;2.30;1.00;;;21.90;70.20;;;;;;10329915;28;20042;-83
2022/08/07 16:09:50;;;;;;;2.05;0.90;;;21.50;72.00;;;;;;10362928;28;20022;-83
2022/08/07 16:15:15;;;;;;;1.27;0.90;;;21.40;74.10;;;;;;10361770;28;20135;-82
2022/08/07 16:20:26;;;;;;;1.53;0.90;;;21.30;72.80;;;;;;10363977;28;20025;-82
2022/08/07 16:25:57;;;;;;;8.52;2.28;;;21.40;74.50;;;;;;10362801;28;20280;-83
2022/08/07 16:31:12;;;;;;;2.03;1.60;;;21.40;73.10;;;;;;10362179;28;20026;-82
2022/08/07 16:36:13;;;;;;;2.88;2.08;;;21.30;72.90;;;;;;10360045;28;20038;-83
2022/08/07 16:41:50;;;;;;;11.05;6.13;;;21.30;73.40;;;;;;10363148;28;20379;-82
2022/08/07 16:47:17;;;;;;;2.17;1.90;;;21.20;72.30;;;;;;10360644;28;20030;-83
2022/08/07 16:52:29;;;;;;;1.25;1.13;;;21.10;72.80;;;;;;10364379;28;20053;-82
2022/08/07 16:57:50;;;;;;;2.55;2.30;;;21.10;72.80;;;;;;10361958;28;20137;-82
2022/08/07 17:03:16;;;;;;;3.50;1.90;;;21.00;71.80;;;;;;10357602;28;20532;-84
2022/08/07 17:08:31;;;;;;;2.97;2.30;;;20.90;73.40;;;;;;10363321;28;20029;-83
2022/08/07 17:13:58;;;;;;;1.48;0.95;;;20.80;74.20;;;;;;10359442;28;20500;-83
2022/08/07 17:19:23;;;;;;;30.55;20.48;;;20.70;73.50;;;;;;10357182;28;20037;-82
2022/08/07 17:24:39;;;;;;;2.30;2.03;;;20.60;74.90;;;;;;10359228;28;20028;-83
2022/08/07 17:30:01;;;;;;;1.55;1.20;;;20.40;73.20;;;;;;10360894;28;20034;-81
2022/08/07 17:35:26;;;;;;;6.93;1.73;;;20.30;74.80;;;;;;10361985;28;20571;-79
2022/08/07 17:40:57;;;;;;;3.88;2.60;;;20.10;74.80;;;;;;10354728;28;20042;-80
2022/08/07 17:46:26;;;;;;;4.85;3.25;;;19.90;75.70;;;;;;10351121;28;20036;-79
2022/08/07 17:51:36;;;;;;;3.70;2.13;;;19.90;77.40;;;;;;10354481;28;20066;-79
2022/08/07 17:56:59;;;;;;;5.20;2.42;;;19.70;76.50;;;;;;10360761;28;20434;-79
2022/08/07 18:02:02;;;;;;;2.42;1.25;;;19.50;77.90;;;;;;10359042;28;20131;-79
2022/08/07 18:07:06;;;;;;;6.40;2.00;;;19.30;80.70;;;;;;10361678;28;20022;-78
2022/08/07 18:12:17;;;;;;;7.60;2.03;;;19.00;79.50;;;;;;10360142;28;20030;-79
2022/08/07 18:17:32;;;;;;;4.60;1.92;;;18.70;82.00;;;;;;10352538;28;20084;-79
2022/08/07 18:22:47;;;;;;;2.72;1.60;;;18.30;84.20;;;;;;10363262;28;20041;-78
2022/08/07 18:27:48;;;;;;;3.70;1.57;;;17.90;87.00;;;;;;10363817;28;20029;-79
2022/08/07 18:33:16;;;;;;;2.72;1.73;;;17.50;87.70;;;;;;10367334;28;20244;-78
2022/08/07 18:38:36;;;;;;;2.75;1.70;;;17.00;90.20;;;;;;10368528;28;20018;-79
2022/08/07 18:44:11;;;;;;;3.92;1.92;;;16.70;91.10;;;;;;10367058;28;20481;-79
2022/08/07 18:49:22;;;;;;;3.13;1.98;;;16.40;93.20;;;;;;10366441;28;20034;-79
2022/08/07 18:54:59;;;;;;;2.63;2.20;;;16.00;95.00;;;;;;10364820;28;20203;-79
2022/08/07 19:00:16;;;;;;;3.60;1.90;;;15.80;97.60;;;;;;10362929;28;20107;-79
2022/08/07 19:05:36;;;;;;;6.28;2.25;;;15.60;99.80;;;;;;10365516;28;20550;-80
2022/08/07 19:10:54;;;;;;;2.78;1.60;;;15.50;99.90;;;;;;10360886;28;20033;-79
2022/08/07 19:15:57;;;;;;;4.07;2.00;;;15.30;99.90;;;;;;10368289;28;20052;-79
2022/08/07 19:21:12;;;;;;;4.90;2.40;;;15.10;99.90;;;;;;10370132;28;20105;-79
2022/08/07 19:26:14;;;;;;;3.40;2.30;;;15.20;99.90;;;;;;10362481;28;20026;-78
2022/08/07 19:31:50;;;;;;;3.28;2.30;;;15.10;99.90;;;;;;10365616;28;20036;-79
2022/08/07 19:36:55;;;;;;;3.42;2.17;;;15.00;99.90;;;;;;10307911;28;20145;-78
2022/08/07 19:41:59;;;;;;;4.43;2.73;;;14.90;99.90;;;;;;10359784;28;20028;-79
2022/08/07 19:47:07;;;;;;;4.68;2.38;;;14.70;99.90;;;;;;10362691;28;20112;-78
2022/08/07 19:52:09;;;;;;;3.63;2.17;;;14.60;99.90;;;;;;10367188;28;20406;-79
2022/08/07 19:57:20;;;;;;;4.47;2.33;;;14.50;99.90;;;;;;10365121;28;20046;-79
2022/08/07 20:02:49;;;;;;;5.63;2.63;;;14.50;99.90;;;;;;10356119;28;20420;-79
2022/08/07 20:07:56;;;;;;;2.85;1.98;;;14.40;99.90;;;;;;10362684;28;20350;-79
2022/08/07 20:13:00;;;;;;;4.88;2.10;;;14.20;99.90;;;;;;10365836;28;20116;-79
2022/08/07 20:18:05;;;;;;;3.63;2.30;;;14.10;99.90;;;;;;10360930;28;20048;-79
2022/08/07 20:23:11;;;;;;;4.90;2.60;;;14.00;99.90;;;;;;10362656;28;20056;-79
2022/08/07 20:28:14;;;;;;;3.10;2.13;;;14.00;99.90;;;;;;10361808;28;20026;-79
2022/08/07 20:33:17;;;;;;;5.88;2.63;;;13.90;99.90;;;;;;10364429;28;20073;-79
2022/08/07 20:38:20;;;;;;;2.10;1.90;;;14.20;99.90;;;;;;10363185;28;20026;-79
2022/08/07 20:43:26;;;;;;;3.90;2.13;;;14.20;99.90;;;;;;10364638;28;20101;-79
2022/08/07 20:48:29;;;;;;;3.03;2.17;;;14.20;99.90;;;;;;10362874;28;20029;-79
2022/08/07 20:53:35;;;;;;;4.30;2.00;;;14.00;99.90;;;;;;10363943;28;20054;-79
2022/08/07 20:58:39;;;;;;;2.65;2.20;;;14.00;99.90;;;;;;10364167;28;20029;-79
2022/08/07 21:03:45;;;;;;;3.60;2.53;;;13.90;99.90;;;;;;10364059;28;20033;-79
2022/08/07 21:09:02;;;;;;;;;;;13.70;99.90;;;;;;10364580;28;20069;-79
2022/08/07 21:14:09;;;;;;;4.22;2.30;;;13.60;99.90;;;;;;10361988;28;20000;-79
2022/08/07 21:19:12;;;;;;;3.88;1.80;;;13.50;99.90;;;;;;10357589;28;20129;-79
2022/08/07 21:24:17;;;;;;;2.70;2.20;;;13.40;99.90;;;;;;10360284;28;20026;-79
2022/08/07 21:29:30;;;;;;;4.85;2.45;;;13.40;99.90;;;;;;10363102;28;20041;-79
2022/08/07 21:34:59;;;;;;;2.67;2.20;;;13.50;99.90;;;;;;10362215;28;20034;-79
2022/08/07 21:40:03;;;;;;;3.78;2.28;;;13.70;99.90;;;;;;10340907;28;20099;-79
2022/08/07 21:45:48;;;;;;;3.85;2.20;;;13.80;99.90;;;;;;10362752;28;20442;-79
2022/08/07 21:51:00;;;;;;;5.07;2.20;;;13.90;99.90;;;;;;10331065;28;20062;-79
2022/08/07 21:56:17;;;;;;;4.95;2.35;;;13.80;99.90;;;;;;10361829;28;20041;-79
2022/08/07 22:01:48;;;;;;;4.15;2.40;;;13.80;99.90;;;;;;10356934;28;20036;-80
2022/08/07 22:07:13;;;;;;;3.38;2.25;;;13.70;99.90;;;;;;10362680;28;20129;-79
2022/08/07 22:12:45;;;;;;;2.90;2.13;;;13.70;99.90;;;;;;10361619;28;20022;-78
2022/08/07 22:18:02;;;;;;;3.47;2.17;;;13.70;99.90;;;;;;10344806;28;20073;-79
2022/08/07 22:23:14;;;;;;;2.90;2.03;;;13.70;99.90;;;;;;10354109;28;20557;-79
2022/08/07 22:28:22;;;;;;;2.83;2.30;;;13.50;99.90;;;;;;10358963;28;20034;-79
2022/08/07 22:33:32;;;;;;;3.97;2.88;;;13.40;99.90;;;;;;10359857;28;20710;-79
2022/08/07 22:38:42;;;;;;;5.45;2.20;;;13.50;99.90;;;;;;10354051;28;20509;-78
2022/08/07 22:43:50;;;;;;;2.58;1.95;;;13.50;99.90;;;;;;10356375;28;20405;-78
2022/08/07 22:49:29;;;;;;;4.25;2.00;;;13.50;99.90;;;;;;10355323;28;20065;-79
2022/08/07 22:54:59;;;;;;;5.07;2.33;;;13.50;99.90;;;;;;10322174;28;20062;-78
2022/08/07 23:00:06;;;;;;;4.88;2.65;;;13.60;99.90;;;;;;10358007;28;20400;-79
2022/08/07 23:05:31;;;;;;;3.35;2.13;;;13.60;99.90;;;;;;10358667;28;20482;-78
2022/08/07 23:10:46;;;;;;;4.97;2.90;;;13.30;99.90;;;;;;10356170;28;20488;-79
2022/08/07 23:16:03;;;;;;;3.72;2.40;;;13.30;99.90;;;;;;10362491;28;20059;-78
2022/08/07 23:21:26;;;;;;;3.30;2.38;;;13.00;99.90;;;;;;10369344;28;20070;-78
2022/08/07 23:26:46;;;;;;;3.33;2.75;;;12.70;99.90;;;;;;10367965;28;20037;-78
2022/08/07 23:32:08;;;;;;;4.88;2.33;;;12.50;99.90;;;;;;10349998;28;20061;-79
2022/08/07 23:37:17;;;;;;;4.20;2.83;;;12.40;99.90;;;;;;10363848;28;20452;-78
2022/08/07 23:42:23;;;;;;;26.70;4.30;;;12.40;99.90;;;;;;10361206;28;20029;-78
2022/08/07 23:47:51;;;;;;;3.90;2.40;;;12.50;99.90;;;;;;10366276;28;20022;-79
2022/08/07 23:53:16;;;;;;;3.08;1.98;;;12.50;99.90;;;;;;10363354;28;20066;-78
2022/08/07 23:58:47;;;;;;;3.70;2.83;;;12.40;99.90;;;;;;10363022;28;20022;-79
